Myrtle Beach, SC

4:01 AM EDT on September 20, 2014 (GMT -0400)
Myrtle Beach International | Change Station
CLOSE
Current Station
Airport
Location: Myrtle Beach,
Elevation: 26 ft
Nearby Weather Stations

Elev 26 ft 33.68 °N, 78.93 °W | Updated 6 minutes ago

Partly Cloudy
Partly Cloudy
70 °F
Feels Like 70 °F
N
12
Wind Variable Wind from NNE

Today
High -- | Low -- °F
--% Chance of Precip.
Yesterday
High -- | Low -- °F
Precip. -- in
7:01 AM 7:14 PM
Waning Crescent, 14% visible
Pressure 30.09 in
Visibility 10.0 miles
Clouds Clear
Dew Point 63 °F
Humidity 78%
Rainfall 0.00 in
Snow Depth Not available.
UV 0 out of 12
Pollen 8.50 out of 12
Air Quality Not available.
Flu Activity Not available.
METAR KMYR 200755Z AUTO 02010KT 10SM CLR 21/17 A3009 RMK AO1

More Conditions Fewer Conditions

Pressure 30.09 in
Visibility 10.0 miles
Clouds Clear
Dew Point 63 °F
Humidity 78%
Rainfall 0.00 in
Snow Depth Not available.
UV 0 out of 12
Pollen 8.50 out of 12
Air Quality Not available.
Flu Activity Not available.
METAR KMYR 200755Z AUTO 02010KT 10SM CLR 21/17 A3009 RMK AO1

More Conditions Fewer Conditions

10-Day Weather Forecast

Almanac

Astronomy

Sep. 20, 2014 Rise Set
Actual Time 7:01 AM EDT 7:14 PM EDT
Civil Twilight 6:36 AM EDT 7:39 PM EDT
Nautical Twilight 6:07 AM EDT 8:08 PM EDT
Astronomical Twilight 5:38 AM EDT 8:38 PM EDT
Moon 3:47 AM EDT 5:10 PM EDT
Length of Visible Light 13h 02m
Length of Day
12h 12m
Tomorrow will be 2m 4s shorter.
Waning Crescent, 14% of the Moon is Illuminated
Today
Waning Crescent
Sep 24
New
Oct 1
First Quarter
Oct 8
Full
Oct 15
Last Quarter

Today's Extremes

State Highs State Lows

Community

WunderPhotos

Upload Photos

1,754,793 photos uploaded!

WunderBlogs® & News

Nearby

Snow Depth

Station Depth Elevation
No new snow has been reported.

Earthquake Activity

City Distance Mag. Time & Date
No recent earthquake activity has been reported nearby.
Minimum magnitude displayed is 2.5.

Coastal Water Temperatures

Place Temperature
Springmaid Pier, SC 80.1 °F

Nearby Weather Stations